sensor_id;sensor_type;location;lat;lon;timestamp;temperature;humidity
44747;DHT22;30472;49.490;10.972;2023-08-08T00:02:11;11.50;99.90
44747;DHT22;30472;49.490;10.972;2023-08-08T00:04:36;11.70;99.90
44747;DHT22;30472;49.490;10.972;2023-08-08T00:07:02;11.70;99.90
44747;DHT22;30472;49.490;10.972;2023-08-08T00:09:27;11.70;99.90
44747;DHT22;30472;49.490;10.972;2023-08-08T00:11:53;11.70;99.90
44747;DHT22;30472;49.490;10.972;2023-08-08T00:14:19;11.80;99.90
44747;DHT22;30472;49.490;10.972;2023-08-08T00:16:44;11.80;99.90
44747;DHT22;30472;49.490;10.972;2023-08-08T00:19:10;11.90;99.90
44747;DHT22;30472;49.490;10.972;2023-08-08T00:21:35;11.90;99.90
44747;DHT22;30472;49.490;10.972;2023-08-08T00:24:01;11.80;99.90
44747;DHT22;30472;49.490;10.972;2023-08-08T00:26:26;11.80;99.90
44747;DHT22;30472;49.490;10.972;2023-08-08T00:28:52;11.80;99.90
44747;DHT22;30472;49.490;10.972;2023-08-08T00:31:19;11.90;99.90
44747;DHT22;30472;49.490;10.972;2023-08-08T00:33:45;11.90;99.90
44747;DHT22;30472;49.490;10.972;2023-08-08T00:36:11;11.90;99.90
44747;DHT22;30472;49.490;10.972;2023-08-08T00:38:36;11.90;99.90
44747;DHT22;30472;49.490;10.972;2023-08-08T00:41:02;11.80;99.90
44747;DHT22;30472;49.490;10.972;2023-08-08T00:43:27;11.80;99.90
44747;DHT22;30472;49.490;10.972;2023-08-08T00:45:53;11.80;99.90
44747;DHT22;30472;49.490;10.972;2023-08-08T00:48:19;11.80;99.90
44747;DHT22;30472;49.490;10.972;2023-08-08T00:50:45;11.80;99.90
44747;DHT22;30472;49.490;10.972;2023-08-08T00:53:12;11.70;99.90
44747;DHT22;30472;49.490;10.972;2023-08-08T00:55:38;11.70;99.90
44747;DHT22;30472;49.490;10.972;2023-08-08T00:58:04;11.70;99.90
44747;DHT22;30472;49.490;10.972;2023-08-08T01:00:31;11.70;99.90
44747;DHT22;30472;49.490;10.972;2023-08-08T01:02:56;11.70;99.90
44747;DHT22;30472;49.490;10.972;2023-08-08T01:05:22;11.80;99.90
44747;DHT22;30472;49.490;10.972;2023-08-08T01:07:57;11.80;99.90
44747;DHT22;30472;49.490;10.972;2023-08-08T01:10:36;11.70;99.90
44747;DHT22;30472;49.490;10.972;2023-08-08T01:13:08;11.70;99.90
44747;DHT22;30472;49.490;10.972;2023-08-08T01:15:36;11.90;99.90
44747;DHT22;30472;49.490;10.972;2023-08-08T01:18:07;11.90;99.90
44747;DHT22;30472;49.490;10.972;2023-08-08T01:20:33;11.90;99.90
44747;DHT22;30472;49.490;10.972;2023-08-08T01:23:16;12.00;99.90
44747;DHT22;30472;49.490;10.972;2023-08-08T01:25:44;12.00;99.90
44747;DHT22;30472;49.490;10.972;2023-08-08T01:28:10;12.00;99.90
44747;DHT22;30472;49.490;10.972;2023-08-08T01:30:35;12.10;99.90
44747;DHT22;30472;49.490;10.972;2023-08-08T01:33:03;12.00;99.90
44747;DHT22;30472;49.490;10.972;2023-08-08T01:35:31;12.00;99.90
44747;DHT22;30472;49.490;10.972;2023-08-08T01:38:26;12.00;99.90
44747;DHT22;30472;49.490;10.972;2023-08-08T01:40:55;12.00;99.90
44747;DHT22;30472;49.490;10.972;2023-08-08T01:43:22;12.00;99.90
44747;DHT22;30472;49.490;10.972;2023-08-08T01:45:48;12.00;99.90
44747;DHT22;30472;49.490;10.972;2023-08-08T01:48:14;11.90;99.90
44747;DHT22;30472;49.490;10.972;2023-08-08T01:50:39;11.90;99.90
44747;DHT22;30472;49.490;10.972;2023-08-08T01:53:05;11.80;99.90
44747;DHT22;30472;49.490;10.972;2023-08-08T01:55:31;11.70;99.90
44747;DHT22;30472;49.490;10.972;2023-08-08T01:57:57;11.70;99.90
44747;DHT22;30472;49.490;10.972;2023-08-08T02:00:22;11.60;99.90
44747;DHT22;30472;49.490;10.972;2023-08-08T02:02:48;11.60;99.90
44747;DHT22;30472;49.490;10.972;2023-08-08T02:05:13;11.50;99.90
44747;DHT22;30472;49.490;10.972;2023-08-08T02:07:39;11.40;99.90
44747;DHT22;30472;49.490;10.972;2023-08-08T02:10:05;11.40;99.90
44747;DHT22;30472;49.490;10.972;2023-08-08T02:12:30;11.40;99.90
44747;DHT22;30472;49.490;10.972;2023-08-08T02:14:58;11.40;99.90
44747;DHT22;30472;49.490;10.972;2023-08-08T02:17:25;11.40;99.90
44747;DHT22;30472;49.490;10.972;2023-08-08T02:19:51;11.40;99.90
44747;DHT22;30472;49.490;10.972;2023-08-08T02:22:17;11.40;99.90
44747;DHT22;30472;49.490;10.972;2023-08-08T02:24:43;11.40;99.90
44747;DHT22;30472;49.490;10.972;2023-08-08T02:27:09;11.40;99.90
44747;DHT22;30472;49.490;10.972;2023-08-08T02:29:35;11.30;99.90
44747;DHT22;30472;49.490;10.972;2023-08-08T02:32:00;11.30;99.90
44747;DHT22;30472;49.490;10.972;2023-08-08T02:34:26;11.20;99.90
44747;DHT22;30472;49.490;10.972;2023-08-08T02:36:52;11.20;99.90
44747;DHT22;30472;49.490;10.972;2023-08-08T02:39:17;11.20;99.90
44747;DHT22;30472;49.490;10.972;2023-08-08T02:41:43;11.20;99.90
44747;DHT22;30472;49.490;10.972;2023-08-08T02:44:09;11.20;99.90
44747;DHT22;30472;49.490;10.972;2023-08-08T02:46:35;11.40;99.90
44747;DHT22;30472;49.490;10.972;2023-08-08T02:49:03;11.40;99.90
44747;DHT22;30472;49.490;10.972;2023-08-08T02:51:29;11.50;99.90
44747;DHT22;30472;49.490;10.972;2023-08-08T02:53:54;11.60;99.90
44747;DHT22;30472;49.490;10.972;2023-08-08T02:56:21;11.70;99.90
44747;DHT22;30472;49.490;10.972;2023-08-08T02:58:47;12.00;99.90
44747;DHT22;30472;49.490;10.972;2023-08-08T03:01:13;12.00;99.90
44747;DHT22;30472;49.490;10.972;2023-08-08T03:03:40;12.10;99.90
44747;DHT22;30472;49.490;10.972;2023-08-08T03:06:06;12.10;99.90
44747;DHT22;30472;49.490;10.972;2023-08-08T03:08:31;12.10;99.90
44747;DHT22;30472;49.490;10.972;2023-08-08T03:10:57;12.10;99.90
44747;DHT22;30472;49.490;10.972;2023-08-08T03:13:23;12.10;99.90
44747;DHT22;30472;49.490;10.972;2023-08-08T03:15:48;12.10;99.90
44747;DHT22;30472;49.490;10.972;2023-08-08T03:18:14;12.10;99.90
44747;DHT22;30472;49.490;10.972;2023-08-08T03:20:39;12.20;99.90
44747;DHT22;30472;49.490;10.972;2023-08-08T03:23:05;12.10;99.90
44747;DHT22;30472;49.490;10.972;2023-08-08T03:25:32;12.10;99.90
44747;DHT22;30472;49.490;10.972;2023-08-08T03:27:58;12.00;99.90
44747;DHT22;30472;49.490;10.972;2023-08-08T03:30:23;12.00;99.90
44747;DHT22;30472;49.490;10.972;2023-08-08T03:32:49;11.90;99.90
44747;DHT22;30472;49.490;10.972;2023-08-08T03:35:14;11.80;99.90
44747;DHT22;30472;49.490;10.972;2023-08-08T03:37:41;11.80;99.90
44747;DHT22;30472;49.490;10.972;2023-08-08T03:40:07;11.80;99.90
44747;DHT22;30472;49.490;10.972;2023-08-08T03:42:33;11.80;99.90
44747;DHT22;30472;49.490;10.972;2023-08-08T03:44:59;11.70;99.90
44747;DHT22;30472;49.490;10.972;2023-08-08T03:47:25;11.70;99.90
44747;DHT22;30472;49.490;10.972;2023-08-08T03:49:51;11.60;99.90
44747;DHT22;30472;49.490;10.972;2023-08-08T03:52:20;11.60;99.90
44747;DHT22;30472;49.490;10.972;2023-08-08T03:54:46;11.50;99.90
44747;DHT22;30472;49.490;10.972;2023-08-08T03:57:12;11.50;99.90
44747;DHT22;30472;49.490;10.972;2023-08-08T03:59:38;11.40;99.90
44747;DHT22;30472;49.490;10.972;2023-08-08T04:02:03;11.40;99.90
44747;DHT22;30472;49.490;10.972;2023-08-08T04:04:29;11.30;99.90
44747;DHT22;30472;49.490;10.972;2023-08-08T04:06:55;11.30;99.90
44747;DHT22;30472;49.490;10.972;2023-08-08T04:09:21;11.30;99.90
44747;DHT22;30472;49.490;10.972;2023-08-08T04:11:46;11.30;99.90
44747;DHT22;30472;49.490;10.972;2023-08-08T04:14:12;11.20;99.90
44747;DHT22;30472;49.490;10.972;2023-08-08T04:16:38;11.10;99.90
44747;DHT22;30472;49.490;10.972;2023-08-08T04:19:04;11.10;99.90
44747;DHT22;30472;49.490;10.972;2023-08-08T04:21:30;11.10;99.90
44747;DHT22;30472;49.490;10.972;2023-08-08T04:23:58;11.10;99.90
44747;DHT22;30472;49.490;10.972;2023-08-08T04:26:25;11.10;99.90
44747;DHT22;30472;49.490;10.972;2023-08-08T04:28:51;11.10;99.90
44747;DHT22;30472;49.490;10.972;2023-08-08T04:31:16;11.00;99.90
44747;DHT22;30472;49.490;10.972;2023-08-08T04:33:42;11.10;99.90
44747;DHT22;30472;49.490;10.972;2023-08-08T04:36:07;11.00;99.90
44747;DHT22;30472;49.490;10.972;2023-08-08T04:38:33;10.90;99.90
44747;DHT22;30472;49.490;10.972;2023-08-08T04:41:00;10.90;99.90
44747;DHT22;30472;49.490;10.972;2023-08-08T04:43:25;10.90;99.90
44747;DHT22;30472;49.490;10.972;2023-08-08T04:45:53;11.00;99.90
44747;DHT22;30472;49.490;10.972;2023-08-08T04:48:19;11.00;99.90
44747;DHT22;30472;49.490;10.972;2023-08-08T04:50:46;11.00;99.90
44747;DHT22;30472;49.490;10.972;2023-08-08T04:53:12;11.00;99.90
44747;DHT22;30472;49.490;10.972;2023-08-08T04:55:37;11.00;99.90
44747;DHT22;30472;49.490;10.972;2023-08-08T04:58:03;11.00;99.90
44747;DHT22;30472;49.490;10.972;2023-08-08T05:00:29;11.00;99.90
44747;DHT22;30472;49.490;10.972;2023-08-08T05:02:54;11.10;99.90
44747;DHT22;30472;49.490;10.972;2023-08-08T05:05:20;11.10;99.90
44747;DHT22;30472;49.490;10.972;2023-08-08T05:07:45;11.20;99.90
44747;DHT22;30472;49.490;10.972;2023-08-08T05:10:11;11.30;99.90
44747;DHT22;30472;49.490;10.972;2023-08-08T05:12:36;11.30;99.90
44747;DHT22;30472;49.490;10.972;2023-08-08T05:15:02;11.40;99.90
44747;DHT22;30472;49.490;10.972;2023-08-08T05:17:30;11.40;99.90
44747;DHT22;30472;49.490;10.972;2023-08-08T05:19:58;11.50;99.90
44747;DHT22;30472;49.490;10.972;2023-08-08T05:22:23;11.70;99.90
44747;DHT22;30472;49.490;10.972;2023-08-08T05:24:49;11.90;99.90
44747;DHT22;30472;49.490;10.972;2023-08-08T05:27:14;12.00;99.90
44747;DHT22;30472;49.490;10.972;2023-08-08T05:29:40;12.10;99.90
44747;DHT22;30472;49.490;10.972;2023-08-08T05:32:07;12.20;99.90
44747;DHT22;30472;49.490;10.972;2023-08-08T05:34:33;12.30;99.90
44747;DHT22;30472;49.490;10.972;2023-08-08T05:37:01;12.40;99.90
44747;DHT22;30472;49.490;10.972;2023-08-08T05:39:26;12.50;99.90
44747;DHT22;30472;49.490;10.972;2023-08-08T05:41:54;12.50;99.90
44747;DHT22;30472;49.490;10.972;2023-08-08T05:44:19;12.50;99.90
44747;DHT22;30472;49.490;10.972;2023-08-08T05:46:45;12.60;99.90
44747;DHT22;30472;49.490;10.972;2023-08-08T05:49:10;12.70;99.90
44747;DHT22;30472;49.490;10.972;2023-08-08T05:51:36;12.80;99.90
44747;DHT22;30472;49.490;10.972;2023-08-08T05:54:02;12.90;99.90
44747;DHT22;30472;49.490;10.972;2023-08-08T05:56:34;13.00;99.90
44747;DHT22;30472;49.490;10.972;2023-08-08T05:59:01;13.10;99.90
44747;DHT22;30472;49.490;10.972;2023-08-08T06:01:26;13.30;99.90
44747;DHT22;30472;49.490;10.972;2023-08-08T06:03:52;13.30;99.90
44747;DHT22;30472;49.490;10.972;2023-08-08T06:06:18;13.50;99.90
44747;DHT22;30472;49.490;10.972;2023-08-08T06:08:44;13.60;99.90
44747;DHT22;30472;49.490;10.972;2023-08-08T06:11:09;13.80;99.90
44747;DHT22;30472;49.490;10.972;2023-08-08T06:13:36;13.80;99.90
44747;DHT22;30472;49.490;10.972;2023-08-08T06:16:01;13.90;99.90
44747;DHT22;30472;49.490;10.972;2023-08-08T06:18:34;14.00;99.90
44747;DHT22;30472;49.490;10.972;2023-08-08T06:21:00;14.10;99.90
44747;DHT22;30472;49.490;10.972;2023-08-08T06:23:25;14.10;99.90
44747;DHT22;30472;49.490;10.972;2023-08-08T06:25:51;14.00;99.90
44747;DHT22;30472;49.490;10.972;2023-08-08T06:28:16;13.90;99.90
44747;DHT22;30472;49.490;10.972;2023-08-08T06:30:42;14.00;99.90
44747;DHT22;30472;49.490;10.972;2023-08-08T06:33:08;14.00;99.90
44747;DHT22;30472;49.490;10.972;2023-08-08T06:35:34;14.10;99.90
44747;DHT22;30472;49.490;10.972;2023-08-08T06:37:59;14.30;99.90
44747;DHT22;30472;49.490;10.972;2023-08-08T06:40:25;14.40;99.90
44747;DHT22;30472;49.490;10.972;2023-08-08T06:42:50;14.50;99.90
44747;DHT22;30472;49.490;10.972;2023-08-08T06:45:16;14.60;99.90
44747;DHT22;30472;49.490;10.972;2023-08-08T06:47:42;15.40;99.90
44747;DHT22;30472;49.490;10.972;2023-08-08T06:50:08;16.00;99.90
44747;DHT22;30472;49.490;10.972;2023-08-08T06:52:33;16.80;99.90
44747;DHT22;30472;49.490;10.972;2023-08-08T06:54:59;16.80;99.90
44747;DHT22;30472;49.490;10.972;2023-08-08T06:57:24;17.30;99.90
44747;DHT22;30472;49.490;10.972;2023-08-08T06:59:52;17.90;99.90
44747;DHT22;30472;49.490;10.972;2023-08-08T07:02:19;18.10;99.90
44747;DHT22;30472;49.490;10.972;2023-08-08T07:04:46;17.90;99.90
44747;DHT22;30472;49.490;10.972;2023-08-08T07:07:11;18.00;99.90
44747;DHT22;30472;49.490;10.972;2023-08-08T07:09:37;18.00;99.90
44747;DHT22;30472;49.490;10.972;2023-08-08T07:12:03;17.80;99.90
44747;DHT22;30472;49.490;10.972;2023-08-08T07:14:29;18.10;99.90
44747;DHT22;30472;49.490;10.972;2023-08-08T07:16:55;18.50;99.90
44747;DHT22;30472;49.490;10.972;2023-08-08T07:19:21;18.90;99.90
44747;DHT22;30472;49.490;10.972;2023-08-08T07:21:47;18.40;99.90
44747;DHT22;30472;49.490;10.972;2023-08-08T07:24:12;19.30;99.90
44747;DHT22;30472;49.490;10.972;2023-08-08T07:26:38;18.90;99.90
44747;DHT22;30472;49.490;10.972;2023-08-08T07:29:04;19.30;99.90
44747;DHT22;30472;49.490;10.972;2023-08-08T07:31:31;19.90;99.90
44747;DHT22;30472;49.490;10.972;2023-08-08T07:33:57;19.80;99.90
44747;DHT22;30472;49.490;10.972;2023-08-08T07:36:23;20.00;99.90
44747;DHT22;30472;49.490;10.972;2023-08-08T07:38:49;19.30;99.90
44747;DHT22;30472;49.490;10.972;2023-08-08T07:41:14;18.90;99.90
44747;DHT22;30472;49.490;10.972;2023-08-08T07:43:40;19.70;99.90
44747;DHT22;30472;49.490;10.972;2023-08-08T07:46:06;19.60;99.90
44747;DHT22;30472;49.490;10.972;2023-08-08T07:48:31;19.80;99.90
44747;DHT22;30472;49.490;10.972;2023-08-08T07:50:57;20.20;99.90
44747;DHT22;30472;49.490;10.972;2023-08-08T07:53:22;20.90;99.90
44747;DHT22;30472;49.490;10.972;2023-08-08T07:55:48;21.10;99.90
44747;DHT22;30472;49.490;10.972;2023-08-08T07:58:13;21.20;99.90
44747;DHT22;30472;49.490;10.972;2023-08-08T08:00:39;20.80;99.90
44747;DHT22;30472;49.490;10.972;2023-08-08T08:03:05;20.50;99.90
44747;DHT22;30472;49.490;10.972;2023-08-08T08:05:30;20.90;99.90
44747;DHT22;30472;49.490;10.972;2023-08-08T08:07:56;20.20;99.90
44747;DHT22;30472;49.490;10.972;2023-08-08T08:10:22;19.70;99.90
44747;DHT22;30472;49.490;10.972;2023-08-08T08:12:48;19.60;99.90
44747;DHT22;30472;49.490;10.972;2023-08-08T08:15:15;18.80;99.90
44747;DHT22;30472;49.490;10.972;2023-08-08T08:17:41;18.50;99.90
44747;DHT22;30472;49.490;10.972;2023-08-08T08:20:07;18.50;99.90
44747;DHT22;30472;49.490;10.972;2023-08-08T08:22:36;19.50;99.90
44747;DHT22;30472;49.490;10.972;2023-08-08T08:25:04;18.90;99.90
44747;DHT22;30472;49.490;10.972;2023-08-08T08:27:30;18.20;99.90
44747;DHT22;30472;49.490;10.972;2023-08-08T08:29:55;17.80;99.90
44747;DHT22;30472;49.490;10.972;2023-08-08T08:32:21;18.70;99.90
44747;DHT22;30472;49.490;10.972;2023-08-08T08:34:47;18.70;99.90
44747;DHT22;30472;49.490;10.972;2023-08-08T08:37:12;19.60;99.90
44747;DHT22;30472;49.490;10.972;2023-08-08T08:39:38;20.10;99.90
44747;DHT22;30472;49.490;10.972;2023-08-08T08:42:05;21.40;99.90
44747;DHT22;30472;49.490;10.972;2023-08-08T08:44:32;20.60;99.90
44747;DHT22;30472;49.490;10.972;2023-08-08T08:47:02;20.80;99.90
44747;DHT22;30472;49.490;10.972;2023-08-08T08:49:32;20.70;99.90
44747;DHT22;30472;49.490;10.972;2023-08-08T08:52:01;20.40;99.90
44747;DHT22;30472;49.490;10.972;2023-08-08T08:54:27;19.40;99.90
44747;DHT22;30472;49.490;10.972;2023-08-08T08:56:55;18.60;99.90
44747;DHT22;30472;49.490;10.972;2023-08-08T08:59:21;18.30;99.90
44747;DHT22;30472;49.490;10.972;2023-08-08T09:01:47;17.90;99.90
44747;DHT22;30472;49.490;10.972;2023-08-08T09:04:14;17.90;99.90
44747;DHT22;30472;49.490;10.972;2023-08-08T09:06:42;18.20;99.90
44747;DHT22;30472;49.490;10.972;2023-08-08T09:09:08;18.10;99.90
44747;DHT22;30472;49.490;10.972;2023-08-08T09:11:34;18.00;99.90
44747;DHT22;30472;49.490;10.972;2023-08-08T09:14:00;17.70;99.90
44747;DHT22;30472;49.490;10.972;2023-08-08T09:16:27;18.40;99.90
44747;DHT22;30472;49.490;10.972;2023-08-08T09:18:53;18.40;99.90
44747;DHT22;30472;49.490;10.972;2023-08-08T09:21:19;18.20;99.90
44747;DHT22;30472;49.490;10.972;2023-08-08T09:23:44;18.40;99.90
44747;DHT22;30472;49.490;10.972;2023-08-08T09:26:12;18.60;99.90
44747;DHT22;30472;49.490;10.972;2023-08-08T09:28:39;19.20;99.90
44747;DHT22;30472;49.490;10.972;2023-08-08T09:31:04;19.70;99.90
44747;DHT22;30472;49.490;10.972;2023-08-08T09:33:30;20.10;99.90
44747;DHT22;30472;49.490;10.972;2023-08-08T09:35:56;19.70;99.90
44747;DHT22;30472;49.490;10.972;2023-08-08T09:38:21;19.60;99.90
44747;DHT22;30472;49.490;10.972;2023-08-08T09:40:47;19.20;99.90
44747;DHT22;30472;49.490;10.972;2023-08-08T09:43:13;19.20;99.90
44747;DHT22;30472;49.490;10.972;2023-08-08T09:45:39;19.20;99.90
44747;DHT22;30472;49.490;10.972;2023-08-08T09:48:07;18.80;99.90
44747;DHT22;30472;49.490;10.972;2023-08-08T09:50:33;19.50;99.90
44747;DHT22;30472;49.490;10.972;2023-08-08T09:53:02;19.30;99.90
44747;DHT22;30472;49.490;10.972;2023-08-08T09:55:29;19.80;99.90
44747;DHT22;30472;49.490;10.972;2023-08-08T09:57:57;19.40;99.90
44747;DHT22;30472;49.490;10.972;2023-08-08T10:00:24;19.30;99.90
44747;DHT22;30472;49.490;10.972;2023-08-08T10:02:54;19.80;99.90
44747;DHT22;30472;49.490;10.972;2023-08-08T10:05:19;20.30;99.90
44747;DHT22;30472;49.490;10.972;2023-08-08T10:07:46;20.40;99.90
44747;DHT22;30472;49.490;10.972;2023-08-08T10:10:12;20.70;99.90
44747;DHT22;30472;49.490;10.972;2023-08-08T10:12:38;20.40;99.90
44747;DHT22;30472;49.490;10.972;2023-08-08T10:15:07;19.60;99.90
44747;DHT22;30472;49.490;10.972;2023-08-08T10:17:40;19.30;99.90
44747;DHT22;30472;49.490;10.972;2023-08-08T10:20:08;19.30;99.90
44747;DHT22;30472;49.490;10.972;2023-08-08T10:22:42;19.60;99.90
44747;DHT22;30472;49.490;10.972;2023-08-08T10:25:08;20.10;99.90
44747;DHT22;30472;49.490;10.972;2023-08-08T10:27:36;19.60;99.90
44747;DHT22;30472;49.490;10.972;2023-08-08T10:30:04;19.30;99.90
44747;DHT22;30472;49.490;10.972;2023-08-08T10:32:44;20.20;99.90
44747;DHT22;30472;49.490;10.972;2023-08-08T10:35:12;20.60;99.90
44747;DHT22;30472;49.490;10.972;2023-08-08T10:37:38;20.50;99.90
44747;DHT22;30472;49.490;10.972;2023-08-08T10:40:05;20.60;99.90
44747;DHT22;30472;49.490;10.972;2023-08-08T10:42:33;20.60;99.90
44747;DHT22;30472;49.490;10.972;2023-08-08T10:45:10;20.50;99.90
44747;DHT22;30472;49.490;10.972;2023-08-08T10:47:37;20.20;99.90
44747;DHT22;30472;49.490;10.972;2023-08-08T10:50:11;20.10;99.90
44747;DHT22;30472;49.490;10.972;2023-08-08T10:55:23;19.80;99.90
44747;DHT22;30472;49.490;10.972;2023-08-08T11:00:25;20.20;99.90
44747;DHT22;30472;49.490;10.972;2023-08-08T11:02:51;20.30;99.90
44747;DHT22;30472;49.490;10.972;2023-08-08T11:05:18;19.90;99.90
44747;DHT22;30472;49.490;10.972;2023-08-08T11:07:44;20.40;99.90
44747;DHT22;30472;49.490;10.972;2023-08-08T11:10:10;20.30;99.90
44747;DHT22;30472;49.490;10.972;2023-08-08T11:12:35;20.50;99.90
44747;DHT22;30472;49.490;10.972;2023-08-08T11:15:01;21.00;99.90
44747;DHT22;30472;49.490;10.972;2023-08-08T11:17:27;20.90;99.90
44747;DHT22;30472;49.490;10.972;2023-08-08T11:19:53;20.90;99.90
44747;DHT22;30472;49.490;10.972;2023-08-08T11:22:21;20.70;99.90
44747;DHT22;30472;49.490;10.972;2023-08-08T11:24:49;20.60;99.90
44747;DHT22;30472;49.490;10.972;2023-08-08T11:27:15;20.30;99.90
44747;DHT22;30472;49.490;10.972;2023-08-08T11:29:48;20.40;99.90
44747;DHT22;30472;49.490;10.972;2023-08-08T11:32:14;20.50;99.90
44747;DHT22;30472;49.490;10.972;2023-08-08T11:34:39;20.40;99.90
44747;DHT22;30472;49.490;10.972;2023-08-08T11:37:05;20.20;99.90
44747;DHT22;30472;49.490;10.972;2023-08-08T11:39:31;20.70;99.90
44747;DHT22;30472;49.490;10.972;2023-08-08T11:41:57;21.10;99.90
44747;DHT22;30472;49.490;10.972;2023-08-08T11:44:22;21.00;99.90
44747;DHT22;30472;49.490;10.972;2023-08-08T11:46:48;21.30;99.90
44747;DHT22;30472;49.490;10.972;2023-08-08T11:49:17;21.50;99.90
44747;DHT22;30472;49.490;10.972;2023-08-08T11:51:44;21.70;99.90
44747;DHT22;30472;49.490;10.972;2023-08-08T11:54:11;21.30;99.90
44747;DHT22;30472;49.490;10.972;2023-08-08T11:56:36;21.40;99.90
44747;DHT22;30472;49.490;10.972;2023-08-08T11:59:02;21.20;99.90
44747;DHT22;30472;49.490;10.972;2023-08-08T12:01:31;21.50;99.90
44747;DHT22;30472;49.490;10.972;2023-08-08T12:03:56;21.80;99.90
44747;DHT22;30472;49.490;10.972;2023-08-08T12:06:22;21.60;99.90
44747;DHT22;30472;49.490;10.972;2023-08-08T12:08:54;21.60;99.90
44747;DHT22;30472;49.490;10.972;2023-08-08T12:11:20;21.60;99.90
44747;DHT22;30472;49.490;10.972;2023-08-08T12:13:46;21.90;99.90
44747;DHT22;30472;49.490;10.972;2023-08-08T12:16:13;21.30;99.90
44747;DHT22;30472;49.490;10.972;2023-08-08T12:18:40;21.60;99.90
44747;DHT22;30472;49.490;10.972;2023-08-08T12:21:07;21.70;99.90
44747;DHT22;30472;49.490;10.972;2023-08-08T12:23:35;21.50;99.90
44747;DHT22;30472;49.490;10.972;2023-08-08T12:26:03;22.00;99.90
44747;DHT22;30472;49.490;10.972;2023-08-08T12:28:29;21.80;99.90
44747;DHT22;30472;49.490;10.972;2023-08-08T12:30:55;21.80;99.90
44747;DHT22;30472;49.490;10.972;2023-08-08T12:33:20;21.40;99.90
44747;DHT22;30472;49.490;10.972;2023-08-08T12:35:48;20.90;99.90
44747;DHT22;30472;49.490;10.972;2023-08-08T12:38:14;20.80;99.90
44747;DHT22;30472;49.490;10.972;2023-08-08T12:40:40;21.30;99.90
44747;DHT22;30472;49.490;10.972;2023-08-08T12:43:06;21.80;99.90
44747;DHT22;30472;49.490;10.972;2023-08-08T12:45:31;22.10;99.90
44747;DHT22;30472;49.490;10.972;2023-08-08T12:47:57;22.40;99.90
44747;DHT22;30472;49.490;10.972;2023-08-08T12:50:22;22.60;99.90
44747;DHT22;30472;49.490;10.972;2023-08-08T12:52:48;22.00;99.90
44747;DHT22;30472;49.490;10.972;2023-08-08T12:55:14;22.10;99.90
44747;DHT22;30472;49.490;10.972;2023-08-08T12:57:42;21.90;99.90
44747;DHT22;30472;49.490;10.972;2023-08-08T13:00:09;22.30;99.90
44747;DHT22;30472;49.490;10.972;2023-08-08T13:02:34;22.20;99.90
44747;DHT22;30472;49.490;10.972;2023-08-08T13:05:00;22.20;99.90
44747;DHT22;30472;49.490;10.972;2023-08-08T13:07:28;22.30;99.90
44747;DHT22;30472;49.490;10.972;2023-08-08T13:09:54;21.80;99.90
44747;DHT22;30472;49.490;10.972;2023-08-08T13:12:19;22.20;99.90
44747;DHT22;30472;49.490;10.972;2023-08-08T13:14:45;22.60;99.90
44747;DHT22;30472;49.490;10.972;2023-08-08T13:17:10;22.20;99.90
44747;DHT22;30472;49.490;10.972;2023-08-08T13:19:36;22.10;99.90
44747;DHT22;30472;49.490;10.972;2023-08-08T13:22:01;22.10;99.90
44747;DHT22;30472;49.490;10.972;2023-08-08T13:24:28;21.90;99.90
44747;DHT22;30472;49.490;10.972;2023-08-08T13:26:55;21.80;99.90
44747;DHT22;30472;49.490;10.972;2023-08-08T13:29:20;22.00;99.90
44747;DHT22;30472;49.490;10.972;2023-08-08T13:31:46;21.70;99.90
44747;DHT22;30472;49.490;10.972;2023-08-08T13:34:11;21.40;99.90
44747;DHT22;30472;49.490;10.972;2023-08-08T13:36:37;21.10;99.90
44747;DHT22;30472;49.490;10.972;2023-08-08T13:39:03;21.50;99.90
44747;DHT22;30472;49.490;10.972;2023-08-08T13:41:29;21.50;99.90
44747;DHT22;30472;49.490;10.972;2023-08-08T13:43:55;21.60;99.90
44747;DHT22;30472;49.490;10.972;2023-08-08T13:46:21;21.80;99.90
44747;DHT22;30472;49.490;10.972;2023-08-08T13:48:47;21.80;99.90
44747;DHT22;30472;49.490;10.972;2023-08-08T13:51:12;21.70;99.90
44747;DHT22;30472;49.490;10.972;2023-08-08T13:53:38;22.00;99.90
44747;DHT22;30472;49.490;10.972;2023-08-08T13:56:04;22.20;99.90
44747;DHT22;30472;49.490;10.972;2023-08-08T13:58:29;22.20;99.90
44747;DHT22;30472;49.490;10.972;2023-08-08T14:00:55;22.10;99.90
44747;DHT22;30472;49.490;10.972;2023-08-08T14:03:22;21.90;99.90
44747;DHT22;30472;49.490;10.972;2023-08-08T14:05:49;21.30;99.90
44747;DHT22;30472;49.490;10.972;2023-08-08T14:08:15;21.50;99.90
44747;DHT22;30472;49.490;10.972;2023-08-08T14:10:41;21.90;99.90
44747;DHT22;30472;49.490;10.972;2023-08-08T14:13:06;21.60;99.90
44747;DHT22;30472;49.490;10.972;2023-08-08T14:15:32;21.70;99.90
44747;DHT22;30472;49.490;10.972;2023-08-08T14:17:58;21.20;99.90
44747;DHT22;30472;49.490;10.972;2023-08-08T14:20:25;21.40;99.90
44747;DHT22;30472;49.490;10.972;2023-08-08T14:22:51;21.80;99.90
44747;DHT22;30472;49.490;10.972;2023-08-08T14:25:17;22.10;99.90
44747;DHT22;30472;49.490;10.972;2023-08-08T14:27:42;21.50;99.90
44747;DHT22;30472;49.490;10.972;2023-08-08T14:30:08;21.40;99.90
44747;DHT22;30472;49.490;10.972;2023-08-08T14:32:35;21.30;99.90
44747;DHT22;30472;49.490;10.972;2023-08-08T14:35:02;21.30;99.90
44747;DHT22;30472;49.490;10.972;2023-08-08T14:37:28;21.20;99.90
44747;DHT22;30472;49.490;10.972;2023-08-08T14:39:53;21.40;99.90
44747;DHT22;30472;49.490;10.972;2023-08-08T14:42:19;21.00;99.90
44747;DHT22;30472;49.490;10.972;2023-08-08T14:44:45;21.00;99.90
44747;DHT22;30472;49.490;10.972;2023-08-08T14:47:11;20.90;99.90
44747;DHT22;30472;49.490;10.972;2023-08-08T14:49:36;21.00;99.90
44747;DHT22;30472;49.490;10.972;2023-08-08T14:52:03;21.10;99.90
44747;DHT22;30472;49.490;10.972;2023-08-08T14:54:29;21.00;99.90
44747;DHT22;30472;49.490;10.972;2023-08-08T14:56:55;21.00;99.90
44747;DHT22;30472;49.490;10.972;2023-08-08T14:59:20;21.50;99.90
44747;DHT22;30472;49.490;10.972;2023-08-08T15:01:46;21.40;99.90
44747;DHT22;30472;49.490;10.972;2023-08-08T15:04:12;21.30;99.90
44747;DHT22;30472;49.490;10.972;2023-08-08T15:06:37;20.80;99.90
44747;DHT22;30472;49.490;10.972;2023-08-08T15:09:03;20.60;99.90
44747;DHT22;30472;49.490;10.972;2023-08-08T15:11:29;20.70;99.90
44747;DHT22;30472;49.490;10.972;2023-08-08T15:13:55;21.00;99.90
44747;DHT22;30472;49.490;10.972;2023-08-08T15:16:20;20.70;99.90